createdAt,value
2018-07-05T00:00:27.127Z,25.4
2018-07-05T00:01:17.228Z,25.4
2018-07-05T00:02:08.103Z,25.4
2018-07-05T00:02:57.877Z,25.4
2018-07-05T00:03:46.865Z,25.4
2018-07-05T00:04:37.741Z,25.5
2018-07-05T00:05:26.993Z,25.4
2018-07-05T00:06:17.825Z,25.4
2018-07-05T00:07:08.523Z,25.4
2018-07-05T00:07:57.687Z,25.4
2018-07-05T00:08:46.925Z,25.4
2018-07-05T00:09:37.808Z,25.4
2018-07-05T00:10:28.112Z,25.4
2018-07-05T00:11:18.300Z,25.4
2018-07-05T00:12:08.592Z,25.4
2018-07-05T00:12:58.937Z,25.4
2018-07-05T00:13:47.704Z,25.4
2018-07-05T00:14:37.702Z,25.4
2018-07-05T00:15:28.832Z,25.4
2018-07-05T00:16:18.630Z,25.4
2018-07-05T00:17:08.764Z,25.4
2018-07-05T00:17:59.074Z,25.4
2018-07-05T00:18:47.944Z,25.4
2018-07-05T00:19:39.458Z,25.3
2018-07-05T00:20:28.941Z,25.3
2018-07-05T00:21:19.011Z,25.3
2018-07-05T00:22:08.510Z,25.3
2018-07-05T00:22:59.452Z,25.3
2018-07-05T00:23:48.631Z,25.3
2018-07-05T00:24:39.261Z,25.3
2018-07-05T00:25:29.345Z,25.3
2018-07-05T00:26:19.663Z,25.3
2018-07-05T00:27:08.894Z,25.3
2018-07-05T00:27:59.209Z,25.2
2018-07-05T00:28:50.121Z,25.2
2018-07-05T00:29:39.943Z,25.2
2018-07-05T00:30:30.016Z,25.2
2018-07-05T00:31:19.787Z,25.2
2018-07-05T00:32:09.536Z,25.2
2018-07-05T00:32:59.906Z,25.1
2018-07-05T00:33:49.371Z,25.1
2018-07-05T00:34:40.540Z,25.1
2018-07-05T00:35:30.340Z,25.1
2018-07-05T00:36:20.397Z,25.1
2018-07-05T00:37:10.496Z,25.1
2018-07-05T00:38:00.773Z,25.1
2018-07-05T00:38:50.542Z,25.1
2018-07-05T00:39:40.048Z,25.1
2018-07-05T00:40:30.428Z,25.1
2018-07-05T00:41:20.471Z,25.1
2018-07-05T00:42:10.785Z,25.1
2018-07-05T00:43:00.891Z,25.1
2018-07-05T00:43:50.692Z,25
2018-07-05T00:44:41.009Z,25
2018-07-05T00:45:31.114Z,25
2018-07-05T00:46:20.863Z,25
2018-07-05T00:47:11.246Z,25
2018-07-05T00:48:01.539Z,25
2018-07-05T00:48:50.564Z,24.9
2018-07-05T00:49:41.448Z,24.9
2018-07-05T00:50:31.478Z,25
2018-07-05T00:51:21.487Z,24.9
2018-07-05T00:52:11.607Z,24.9
2018-07-05T00:53:01.663Z,24.9
2018-07-05T00:53:51.179Z,24.9
2018-07-05T00:54:41.264Z,24.9
2018-07-05T00:55:31.642Z,24.9
2018-07-05T00:56:21.955Z,24.9
2018-07-05T00:57:11.989Z,24.9
2018-07-05T00:58:02.082Z,24.9
2018-07-05T00:58:51.839Z,24.9
2018-07-05T00:59:42.176Z,24.9
2018-07-05T01:00:32.026Z,24.9
2018-07-05T01:01:21.790Z,24.9
2018-07-05T01:02:12.397Z,24.9
2018-07-05T01:03:02.411Z,24.9
2018-07-05T01:03:52.767Z,24.9
2018-07-05T01:04:42.295Z,24.8
2018-07-05T01:05:32.379Z,24.8
2018-07-05T01:06:22.463Z,24.8
2018-07-05T01:07:12.507Z,24.8
2018-07-05T01:08:02.854Z,24.8
2018-07-05T01:08:52.328Z,24.8
2018-07-05T01:09:43.037Z,24.8
2018-07-05T01:10:33.104Z,24.8
2018-07-05T01:11:22.829Z,24.8
2018-07-05T01:12:12.883Z,24.8
2018-07-05T01:13:03.242Z,24.8
2018-07-05T01:13:53.249Z,24.8
2018-07-05T01:14:43.110Z,24.8
2018-07-05T01:15:33.553Z,24.8
2018-07-05T01:16:23.449Z,24.8
2018-07-05T01:17:13.573Z,24.8
2018-07-05T01:18:03.091Z,24.8
2018-07-05T01:18:53.435Z,24.8
2018-07-05T01:19:43.483Z,24.8
2018-07-05T01:20:33.508Z,24.8
2018-07-05T01:21:23.930Z,24.7
2018-07-05T01:22:13.942Z,24.7
2018-07-05T01:23:04.298Z,24.8
2018-07-05T01:23:53.494Z,24.7
2018-07-05T01:24:44.385Z,24.7
2018-07-05T01:25:33.674Z,24.7
2018-07-05T01:26:24.554Z,24.7
2018-07-05T01:27:14.037Z,24.7
2018-07-05T01:28:04.417Z,24.7
2018-07-05T01:28:54.458Z,24.7
2018-07-05T01:29:44.504Z,24.7
2018-07-05T01:30:33.762Z,24.6
2018-07-05T01:31:24.108Z,24.7
2018-07-05T01:32:14.421Z,24.6
2018-07-05T01:33:04.782Z,24.6
2018-07-05T01:33:54.271Z,24.6
2018-07-05T01:34:44.090Z,24.6
2018-07-05T01:35:34.954Z,24.6
2018-07-05T01:36:25.106Z,24.6
2018-07-05T01:37:14.594Z,24.6
2018-07-05T01:38:05.195Z,24.6
2018-07-05T01:38:55.239Z,24.6
2018-07-05T01:39:45.287Z,24.6
2018-07-05T01:40:35.655Z,24.6
2018-07-05T01:41:25.842Z,24.6
2018-07-05T01:42:15.203Z,24.6
2018-07-05T01:43:05.556Z,24.6
2018-07-05T01:43:55.383Z,24.6
2018-07-05T01:44:45.445Z,24.6
2018-07-05T01:45:36.086Z,24.6
2018-07-05T01:46:26.143Z,24.6
2018-07-05T01:47:15.551Z,24.6
2018-07-05T01:48:06.010Z,24.6
2018-07-05T01:48:56.240Z,24.6
2018-07-05T01:49:45.489Z,24.6
2018-07-05T01:50:36.415Z,24.6
2018-07-05T01:51:25.930Z,24.6
2018-07-05T01:52:16.538Z,24.6
2018-07-05T01:53:06.335Z,24.6
2018-07-05T01:53:56.103Z,24.6
2018-07-05T01:54:46.498Z,24.6
2018-07-05T01:55:36.803Z,24.6
2018-07-05T01:56:26.875Z,24.6
2018-07-05T01:57:17.122Z,24.6
2018-07-05T01:58:07.051Z,24.5
2018-07-05T01:58:56.805Z,24.5
2018-07-05T01:59:46.878Z,24.6
2018-07-05T02:00:36.978Z,24.5
2018-07-05T02:01:26.720Z,24.6
2018-07-05T02:02:16.503Z,24.5
2018-07-05T02:03:06.579Z,24.5
2018-07-05T02:03:56.898Z,24.5
2018-07-05T02:04:47.240Z,24.5
2018-07-05T02:05:37.042Z,24.5
2018-07-05T02:06:27.405Z,24.5
2018-07-05T02:07:17.734Z,24.5
2018-07-05T02:08:07.564Z,24.5
2018-07-05T02:08:57.854Z,24.5
2018-07-05T02:09:47.754Z,24.5
2018-07-05T02:10:37.848Z,24.5
2018-07-05T02:11:28.253Z,24.5
2018-07-05T02:12:18.242Z,24.5
2018-07-05T02:13:07.712Z,24.5
2018-07-05T02:13:58.343Z,24.5
2018-07-05T02:14:47.565Z,24.4
2018-07-05T02:15:38.490Z,24.5
2018-07-05T02:16:28.505Z,24.4
2018-07-05T02:17:17.455Z,24.5
2018-07-05T02:18:08.664Z,24.5
2018-07-05T02:18:58.650Z,24.5
2018-07-05T02:19:48.751Z,24.5
2018-07-05T02:20:38.801Z,24.5
2018-07-05T02:21:28.861Z,24.4
2018-07-05T02:22:18.350Z,24.4
2018-07-05T02:23:08.936Z,24.4
2018-07-05T02:23:58.729Z,24.5
2018-07-05T02:24:49.037Z,24.4
2018-07-05T02:25:39.129Z,24.4
2018-07-05T02:26:28.627Z,24.4
2018-07-05T02:27:19.338Z,24.4
2018-07-05T02:28:09.077Z,24.4
2018-07-05T02:28:58.843Z,24.4
2018-07-05T02:29:48.893Z,24.4
2018-07-05T02:30:39.554Z,24.4
2018-07-05T02:31:29.351Z,24.4
2018-07-05T02:32:19.671Z,24.4
2018-07-05T02:33:09.215Z,24.4
2018-07-05T02:33:59.553Z,24.4
2018-07-05T02:34:49.898Z,24.4
2018-07-05T02:35:39.723Z,24.4
2018-07-05T02:36:30.051Z,24.4
2018-07-05T02:37:20.088Z,24.4
2018-07-05T02:38:09.818Z,24.4
2018-07-05T02:38:59.911Z,24.4
2018-07-05T02:39:50.263Z,24.4
2018-07-05T02:40:40.079Z,24.4
2018-07-05T02:41:30.429Z,24.4
2018-07-05T02:42:20.237Z,24.4
2018-07-05T02:43:10.064Z,24.4
2018-07-05T02:43:59.816Z,24.4
2018-07-05T02:44:50.367Z,24.4
2018-07-05T02:45:40.163Z,24.4
2018-07-05T02:46:30.542Z,24.4
2018-07-05T02:47:20.913Z,24.4
2018-07-05T02:48:10.653Z,24.4
2018-07-05T02:48:59.881Z,24.4
2018-07-05T02:49:51.020Z,24.4
2018-07-05T02:50:40.812Z,24.4
2018-07-05T02:51:30.900Z,24.4
2018-07-05T02:52:21.283Z,24.4
2018-07-05T02:53:11.279Z,24.4
2018-07-05T02:54:01.415Z,24.4
2018-07-05T02:54:51.428Z,24.4
2018-07-05T02:55:41.502Z,24.4
2018-07-05T02:56:30.995Z,24.4
2018-07-05T02:57:21.358Z,24.4
2018-07-05T02:58:11.421Z,24.4
2018-07-05T02:59:01.485Z,24.4
2018-07-05T02:59:51.267Z,24.4
2018-07-05T03:00:41.347Z,24.4
2018-07-05T03:01:31.447Z,24.4
2018-07-05T03:02:21.548Z,24.4
2018-07-05T03:03:11.655Z,24.4
2018-07-05T03:04:01.917Z,24.4
2018-07-05T03:04:51.429Z,24.4
2018-07-05T03:05:42.322Z,24.4
2018-07-05T03:06:31.799Z,24.4
2018-07-05T03:07:21.610Z,24.3
2018-07-05T03:08:11.667Z,24.4
2018-07-05T03:09:02.016Z,24.4
2018-07-05T03:09:52.372Z,24.4
2018-07-05T03:10:42.162Z,24.4
2018-07-05T03:11:32.802Z,24.3
2018-07-05T03:12:22.784Z,24.4
2018-07-05T03:13:12.884Z,24.4
2018-07-05T03:14:02.367Z,24.4
2018-07-05T03:14:52.159Z,24.3
2018-07-05T03:15:42.796Z,24.3
2018-07-05T03:16:33.184Z,24.3
2018-07-05T03:17:23.174Z,24.4
2018-07-05T03:18:13.104Z,24.4
2018-07-05T03:19:03.425Z,24.4
2018-07-05T03:19:53.408Z,24.3
2018-07-05T03:20:42.941Z,24.3
2018-07-05T03:21:33.241Z,24.3
2018-07-05T03:22:23.594Z,24.4
2018-07-05T03:23:13.163Z,24.4
2018-07-05T03:24:03.211Z,24.4
2018-07-05T03:24:53.884Z,24.3
2018-07-05T03:25:43.691Z,24.4
2018-07-05T03:26:32.846Z,24.3
2018-07-05T03:27:22.940Z,24.3
2018-07-05T03:28:13.533Z,24.3
2018-07-05T03:29:03.607Z,24.3
2018-07-05T03:29:53.654Z,24.3
2018-07-05T03:30:43.761Z,24.3
2018-07-05T03:31:33.263Z,24.3
2018-07-05T03:32:24.355Z,24.3
2018-07-05T03:33:14.133Z,24.3
2018-07-05T03:34:04.194Z,24.4
2018-07-05T03:34:54.026Z,24.3
2018-07-05T03:35:44.354Z,24.3
2018-07-05T03:36:34.686Z,24.3
2018-07-05T03:37:23.905Z,24.4
2018-07-05T03:38:14.530Z,24.3
2018-07-05T03:39:04.846Z,24.3
2018-07-05T03:39:53.792Z,24.4
2018-07-05T03:40:44.738Z,24.3
2018-07-05T03:41:34.558Z,24.3
2018-07-05T03:42:24.574Z,24.3
2018-07-05T03:43:14.908Z,24.3
2018-07-05T03:44:05.017Z,24.3
2018-07-05T03:44:55.334Z,24.3
2018-07-05T03:45:44.837Z,24.3
2018-07-05T03:46:34.909Z,24.3
2018-07-05T03:47:24.937Z,24.3
2018-07-05T03:48:14.995Z,24.3
2018-07-05T03:49:05.363Z,24.3
2018-07-05T03:49:55.715Z,24.3
2018-07-05T03:50:45.242Z,24.3
2018-07-05T03:51:35.125Z,24.3
2018-07-05T03:52:25.901Z,24.3
2018-07-05T03:53:15.976Z,24.3
2018-07-05T03:54:06.021Z,24.3
2018-07-05T03:54:55.760Z,24.3
2018-07-05T03:55:45.825Z,24.3
2018-07-05T03:56:35.927Z,24.3
2018-07-05T03:57:25.948Z,24.3
2018-07-05T03:58:16.292Z,24.3
2018-07-05T03:59:06.423Z,24.3
2018-07-05T03:59:56.451Z,24.3
2018-07-05T04:00:46.207Z,24.3
2018-07-05T04:01:36.327Z,24.3
2018-07-05T04:02:26.424Z,24.3
2018-07-05T04:03:16.131Z,24.3
2018-07-05T04:04:06.764Z,24.3
2018-07-05T04:04:56.580Z,24.3
2018-07-05T04:05:46.973Z,24.3
2018-07-05T04:06:36.766Z,24.3
2018-07-05T04:07:26.534Z,24.3
2018-07-05T04:08:17.244Z,24.3
2018-07-05T04:09:07.147Z,24.3
2018-07-05T04:09:57.254Z,24.3
2018-07-05T04:10:47.326Z,24.3
2018-07-05T04:11:36.291Z,24.3
2018-07-05T04:12:26.682Z,24.3
2018-07-05T04:13:16.709Z,24.3
2018-07-05T04:14:06.242Z,24.3
2018-07-05T04:14:56.658Z,24.3
2018-07-05T04:15:45.470Z,24.3
2018-07-05T04:16:36.192Z,24.3
2018-07-05T04:17:26.527Z,24.3
2018-07-05T04:18:15.731Z,24.3
2018-07-05T04:19:05.979Z,24.3
2018-07-05T04:19:55.881Z,24.3
2018-07-05T04:20:46.260Z,24.3
2018-07-05T04:21:36.195Z,24.3
2018-07-05T04:22:25.873Z,24.3
2018-07-05T04:23:16.548Z,24.3
2018-07-05T04:24:07.024Z,24.3
2018-07-05T04:24:57.181Z,24.3
2018-07-05T04:25:46.970Z,24.3
2018-07-05T04:26:37.789Z,24.3
2018-07-05T04:27:26.011Z,24.3
2018-07-05T04:28:17.061Z,24.3
2018-07-05T04:29:06.417Z,24.3
2018-07-05T04:29:56.866Z,24.3
2018-07-05T04:30:47.301Z,24.3
2018-07-05T04:31:37.547Z,24.3
2018-07-05T04:32:28.043Z,24.3
2018-07-05T04:33:18.100Z,24.3
2018-07-05T04:34:08.264Z,24.3
2018-07-05T04:34:57.546Z,24.3
2018-07-05T04:35:48.125Z,24.3
2018-07-05T04:36:38.047Z,24.3
2018-07-05T04:37:27.745Z,24.3
2018-07-05T04:38:17.647Z,24.3
2018-07-05T04:39:08.478Z,24.4
2018-07-05T04:39:57.636Z,24.3
2018-07-05T04:40:47.859Z,24.3
2018-07-05T04:41:37.721Z,24.3
2018-07-05T04:42:28.600Z,24.3
2018-07-05T04:43:18.095Z,24.3
2018-07-05T04:44:08.095Z,24.3
2018-07-05T04:44:58.672Z,24.3
2018-07-05T04:45:48.526Z,24.4
2018-07-05T04:46:38.969Z,24.3
2018-07-05T04:47:28.579Z,24.3
2018-07-05T04:48:18.295Z,24.3
2018-07-05T04:49:09.034Z,24.3
2018-07-05T04:49:59.088Z,24.3
2018-07-05T04:50:49.167Z,24.4
2018-07-05T04:51:38.771Z,24.4
2018-07-05T04:52:28.997Z,24.4
2018-07-05T04:53:20.441Z,24.4
2018-07-05T04:54:09.411Z,24.4
2018-07-05T04:54:59.555Z,24.3
2018-07-05T04:55:49.139Z,24.4
2018-07-05T04:56:40.499Z,24.3
2018-07-05T04:57:29.062Z,24.4
2018-07-05T04:58:19.328Z,24.4
2018-07-05T04:59:09.515Z,24.4
2018-07-05T05:00:00.386Z,24.3
2018-07-05T05:00:49.911Z,24.4
2018-07-05T05:01:40.422Z,24.4
2018-07-05T05:02:32.101Z,24.4
2018-07-05T05:03:21.458Z,24.4
2018-07-05T05:04:11.435Z,24.4
2018-07-05T05:05:00.777Z,24.4
2018-07-05T05:05:51.579Z,24.4
2018-07-05T05:06:41.050Z,24.4
2018-07-05T05:07:31.187Z,24.4
2018-07-05T05:08:21.007Z,24.4
2018-07-05T05:09:11.295Z,24.4
2018-07-05T05:10:01.055Z,24.4
2018-07-05T05:10:51.681Z,24.4
2018-07-05T05:11:41.512Z,24.4
2018-07-05T05:12:31.581Z,24.4
2018-07-05T05:13:21.592Z,24.4
2018-07-05T05:14:11.939Z,24.4
2018-07-05T05:15:02.680Z,24.4
2018-07-05T05:15:51.567Z,24.4
2018-07-05T05:16:42.140Z,24.4
2018-07-05T05:17:32.516Z,24.4
2018-07-05T05:18:22.247Z,24.4
2018-07-05T05:19:12.634Z,24.4
2018-07-05T05:20:02.150Z,24.4
2018-07-05T05:20:51.947Z,24.4
2018-07-05T05:21:41.833Z,24.4
2018-07-05T05:22:31.337Z,24.4
2018-07-05T05:23:21.150Z,24.4
2018-07-05T05:24:12.175Z,24.4
2018-07-05T05:25:01.563Z,24.4
2018-07-05T05:25:52.119Z,24.4
2018-07-05T05:26:42.683Z,24.4
2018-07-05T05:27:32.554Z,24.4
2018-07-05T05:28:22.204Z,24.4
2018-07-05T05:29:13.152Z,24.4
2018-07-05T05:30:03.788Z,24.4
2018-07-05T05:30:52.723Z,24.4
2018-07-05T05:31:43.292Z,24.4
2018-07-05T05:32:33.639Z,24.4
2018-07-05T05:33:22.896Z,24.4
2018-07-05T05:34:13.522Z,24.4
2018-07-05T05:35:03.294Z,24.4
2018-07-05T05:35:53.643Z,24.4
2018-07-05T05:36:43.993Z,24.4
2018-07-05T05:37:33.747Z,24.4
2018-07-05T05:38:23.358Z,24.4
2018-07-05T05:39:13.451Z,24.4
2018-07-05T05:40:03.967Z,24.4
2018-07-05T05:40:53.535Z,24.4
2018-07-05T05:41:43.579Z,24.4
2018-07-05T05:42:33.597Z,24.4
2018-07-05T05:43:24.535Z,24.4
2018-07-05T05:44:14.154Z,24.4
2018-07-05T05:45:04.115Z,24.4
2018-07-05T05:45:54.407Z,24.4
2018-07-05T05:46:44.186Z,24.4
2018-07-05T05:47:34.602Z,24.4
2018-07-05T05:48:24.648Z,24.4
2018-07-05T05:49:14.897Z,24.4
2018-07-05T05:50:04.696Z,24.4
2018-07-05T05:50:55.045Z,24.4
2018-07-05T05:51:44.596Z,24.4
2018-07-05T05:52:34.917Z,24.4
2018-07-05T05:53:25.243Z,24.4
2018-07-05T05:54:15.029Z,24.4
2018-07-05T05:55:05.318Z,24.4
2018-07-05T05:55:55.463Z,24.4
2018-07-05T05:56:45.508Z,24.4
2018-07-05T05:57:35.014Z,24.4
2018-07-05T05:58:25.637Z,24.4
2018-07-05T05:59:15.409Z,24.4
2018-07-05T06:00:04.912Z,24.4
2018-07-05T06:00:55.310Z,24.4
2018-07-05T06:01:45.875Z,24.4
2018-07-05T06:02:35.670Z,24.4
2018-07-05T06:03:24.351Z,24.4
2018-07-05T06:04:15.575Z,24.4
2018-07-05T06:05:05.884Z,24.4
2018-07-05T06:05:55.660Z,24.4
2018-07-05T06:06:46.048Z,24.4
2018-07-05T06:07:36.074Z,24.4
2018-07-05T06:08:26.180Z,24.4
2018-07-05T06:09:15.716Z,24.4
2018-07-05T06:10:06.486Z,24.4
2018-07-05T06:10:55.783Z,24.4
2018-07-05T06:11:46.418Z,24.4
2018-07-05T06:12:36.473Z,24.4
2018-07-05T06:13:26.251Z,24.4
2018-07-05T06:14:16.342Z,25.9
2018-07-05T06:15:06.667Z,28.1
2018-07-05T06:15:56.729Z,29.3
2018-07-05T06:16:46.786Z,30.8
2018-07-05T06:17:36.906Z,31.4
2018-07-05T06:18:26.372Z,31.5
2018-07-05T06:19:17.062Z,30.8
2018-07-05T06:20:07.320Z,29.8
2018-07-05T06:20:57.060Z,29.1
2018-07-05T06:21:47.447Z,28.8
2018-07-05T06:22:37.464Z,28.7
2018-07-05T06:23:27.260Z,28.7
2018-07-05T06:24:17.641Z,28.7
2018-07-05T06:25:07.741Z,28.7
2018-07-05T06:25:57.744Z,28.7
2018-07-05T06:26:47.521Z,28.7
2018-07-05T06:27:37.859Z,28.6
2018-07-05T06:28:27.671Z,28.6
2018-07-05T06:29:17.743Z,28.6
2018-07-05T06:30:07.531Z,28.5
2018-07-05T06:30:57.589Z,28.4
2018-07-05T06:31:48.049Z,28.4
2018-07-05T06:32:38.024Z,28.3
2018-07-05T06:33:27.791Z,28.3
2018-07-05T06:34:18.663Z,28.3
2018-07-05T06:35:08.620Z,28.1
2018-07-05T06:35:58.609Z,28.1
2018-07-05T06:36:48.405Z,28.1
2018-07-05T06:37:38.200Z,27.9
2018-07-05T06:38:28.515Z,29
2018-07-05T06:39:18.374Z,30
2018-07-05T06:40:08.375Z,31.7
2018-07-05T06:40:58.492Z,32.8
2018-07-05T06:41:48.999Z,33.1
2018-07-05T06:42:38.568Z,33.3
2018-07-05T06:43:28.985Z,33.1
2018-07-05T06:44:18.709Z,33
2018-07-05T06:45:08.792Z,33.1
2018-07-05T06:45:58.790Z,33.3
2018-07-05T06:46:48.968Z,33.6
2018-07-05T06:47:38.682Z,33.8
2018-07-05T06:48:28.824Z,33.9
2018-07-05T06:49:18.460Z,34.1
2018-07-05T06:50:08.721Z,34.2
2018-07-05T06:50:58.729Z,34.3
2018-07-05T06:51:49.076Z,34.4
2018-07-05T06:52:38.567Z,34.3
2018-07-05T06:53:29.220Z,34.4
2018-07-05T06:54:18.138Z,34.5
2018-07-05T06:55:09.788Z,34.6
2018-07-05T06:55:59.851Z,34.8
2018-07-05T06:56:50.461Z,34.9
2018-07-05T06:57:40.072Z,35.1
2018-07-05T06:58:30.307Z,35.3
2018-07-05T06:59:20.932Z,35.4
2018-07-05T07:00:09.352Z,35.5
2018-07-05T07:00:59.760Z,35.7
2018-07-05T07:01:50.285Z,35.8
2018-07-05T07:02:40.109Z,35.9
2018-07-05T07:03:29.818Z,36.1
2018-07-05T07:04:20.530Z,36.3
2018-07-05T07:05:10.229Z,36.4
2018-07-05T07:06:00.310Z,36.5
2018-07-05T07:06:50.966Z,36.7
2018-07-05T07:07:40.225Z,36.8
2018-07-05T07:08:30.745Z,36.9
2018-07-05T07:09:20.870Z,37.1
2018-07-05T07:10:10.967Z,37.3
2018-07-05T07:11:00.988Z,37.4
2018-07-05T07:11:51.285Z,37.5
2018-07-05T07:12:40.849Z,37.6
2018-07-05T07:13:30.886Z,37.8
2018-07-05T07:14:20.721Z,37.9
2018-07-05T07:15:10.779Z,38.1
2018-07-05T07:16:01.785Z,38.2
2018-07-05T07:16:51.744Z,38.3
2018-07-05T07:17:41.221Z,38.4
2018-07-05T07:18:31.024Z,38.6
2018-07-05T07:19:21.981Z,38.7
2018-07-05T07:20:11.478Z,38.8
2018-07-05T07:21:01.493Z,38.9
2018-07-05T07:21:51.849Z,39.1
2018-07-05T07:22:41.883Z,39.2
2018-07-05T07:23:31.974Z,39.4
2018-07-05T07:24:22.128Z,39.4
2018-07-05T07:25:12.364Z,39.6
2018-07-05T07:26:02.170Z,39.8
2018-07-05T07:26:52.597Z,39.9
2018-07-05T07:27:41.498Z,40
2018-07-05T07:28:32.404Z,40.2
2018-07-05T07:29:22.720Z,40.3
2018-07-05T07:30:12.234Z,40.4
2018-07-05T07:31:01.722Z,40.6
2018-07-05T07:31:54.297Z,40.7
2018-07-05T07:32:42.469Z,40.8
2018-07-05T07:33:32.272Z,40.9
2018-07-05T07:34:22.551Z,41.1
2018-07-05T07:35:12.991Z,41.2
2018-07-05T07:36:02.659Z,41.4
2018-07-05T07:36:53.055Z,41.5
2018-07-05T07:37:43.832Z,41.6
2018-07-05T07:38:33.433Z,41.8
2018-07-05T07:39:22.911Z,41.9
2018-07-05T07:40:13.051Z,42.1
2018-07-05T07:41:03.353Z,42.2
2018-07-05T07:41:53.658Z,42.4
2018-07-05T07:42:43.220Z,42.5
2018-07-05T07:43:33.039Z,42.6
2018-07-05T07:44:23.065Z,42.8
2018-07-05T07:45:13.129Z,42.9
2018-07-05T07:46:03.521Z,43.1
2018-07-05T07:46:53.465Z,43.1
2018-07-05T07:47:43.617Z,43.2
2018-07-05T07:48:34.215Z,43.3
2018-07-05T07:49:23.432Z,43.5
2018-07-05T07:50:14.414Z,43.6
2018-07-05T07:51:04.155Z,43.8
2018-07-05T07:51:54.481Z,43.8
2018-07-05T07:52:44.259Z,44
2018-07-05T07:53:34.612Z,44.1
2018-07-05T07:54:24.395Z,44.3
2018-07-05T07:55:13.958Z,44.4
2018-07-05T07:56:04.794Z,44.6
2018-07-05T07:56:54.320Z,44.8
2018-07-05T07:57:44.902Z,45
2018-07-05T07:58:34.456Z,45.1
2018-07-05T07:59:24.863Z,45.2
2018-07-05T08:00:13.751Z,45.3
2018-07-05T08:01:04.634Z,45.4
2018-07-05T08:01:54.974Z,45.7
2018-07-05T08:02:44.551Z,45.8
2018-07-05T08:03:35.371Z,46
2018-07-05T08:04:25.429Z,46.2
2018-07-05T08:05:15.119Z,46.4
2018-07-05T08:06:04.182Z,46.5
2018-07-05T08:06:55.412Z,46.6
2018-07-05T08:07:45.728Z,46.8
2018-07-05T08:08:35.784Z,46.8
2018-07-05T08:09:25.851Z,46.8
2018-07-05T08:10:15.666Z,46.8
2018-07-05T08:11:05.239Z,47
2018-07-05T08:11:55.214Z,47.2
2018-07-05T08:12:45.845Z,47.4
2018-07-05T08:13:35.931Z,47.5
2018-07-05T08:14:25.737Z,47.6
2018-07-05T08:15:15.939Z,47.8
2018-07-05T08:16:05.923Z,47.9
2018-07-05T08:16:55.945Z,47.9
2018-07-05T08:17:46.268Z,48.1
2018-07-05T08:18:36.583Z,48.2
2018-07-05T08:19:26.101Z,48.3
2018-07-05T08:20:16.431Z,48.4
2018-07-05T08:21:06.524Z,48.5
2018-07-05T08:21:56.286Z,48.6
2018-07-05T08:22:46.071Z,48.7
2018-07-05T08:23:36.428Z,48.8
2018-07-05T08:24:27.093Z,48.9
2018-07-05T08:25:16.596Z,49.1
2018-07-05T08:26:06.911Z,49.2
2018-07-05T08:26:56.992Z,49.3
2018-07-05T08:27:47.060Z,49.4
2018-07-05T08:28:36.247Z,49.5
2018-07-05T08:29:26.960Z,49.6
2018-07-05T08:30:16.990Z,49.8
2018-07-05T08:31:07.592Z,49.8
2018-07-05T08:31:57.374Z,49.9
2018-07-05T08:32:46.658Z,50.1
2018-07-05T08:33:36.976Z,50.2
2018-07-05T08:34:27.826Z,50.3
2018-07-05T08:35:17.370Z,50.4
2018-07-05T08:36:07.209Z,50.5
2018-07-05T08:36:57.461Z,50.6
2018-07-05T08:37:48.505Z,50.7
2018-07-05T08:38:37.381Z,50.8
2018-07-05T08:39:28.216Z,50.9
2018-07-05T08:40:17.215Z,51
2018-07-05T08:41:08.356Z,51.1
2018-07-05T08:41:58.145Z,51.2
2018-07-05T08:42:48.231Z,51.3
2018-07-05T08:43:38.245Z,51.4
2018-07-05T08:44:28.077Z,51.5
2018-07-05T08:45:18.134Z,51.6
2018-07-05T08:46:08.241Z,51.7
2018-07-05T08:46:58.565Z,51.8
2018-07-05T08:48:38.398Z,52.1
2018-07-05T08:49:28.725Z,52.1
2018-07-05T08:50:18.512Z,52.3
2018-07-05T08:51:08.639Z,52.3
2018-07-05T08:51:58.382Z,52.4
2018-07-05T08:52:48.742Z,52.5
2018-07-05T08:53:38.512Z,52.6
2018-07-05T08:54:29.147Z,52.7
2018-07-05T08:55:18.717Z,52.8
2018-07-05T08:56:08.442Z,52.9
2018-07-05T08:56:59.586Z,53
2018-07-05T08:57:49.149Z,53.1
2018-07-05T08:58:39.007Z,53.2
2018-07-05T08:59:29.849Z,53.3
2018-07-05T09:00:19.602Z,53.4
2018-07-05T09:01:08.844Z,53.4
2018-07-05T09:01:59.741Z,53.5
2018-07-05T09:02:49.556Z,53.6
2018-07-05T09:03:39.921Z,53.7
2018-07-05T09:04:29.930Z,53.8
2018-07-05T09:05:21.097Z,53.9
2018-07-05T09:06:09.804Z,53.9
2018-07-05T09:06:59.820Z,54
2018-07-05T09:07:49.601Z,54.1
2018-07-05T09:08:39.696Z,54.2
2018-07-05T09:09:30.108Z,54.2
2018-07-05T09:10:20.576Z,54.3
2018-07-05T09:11:10.194Z,54.4
2018-07-05T09:12:00.760Z,54.4
2018-07-05T09:12:50.833Z,54.6
2018-07-05T09:13:40.401Z,54.6
2018-07-05T09:14:30.679Z,54.7
2018-07-05T09:15:20.798Z,54.8
2018-07-05T09:16:11.160Z,54.8
2018-07-05T09:17:00.434Z,54.9
2018-07-05T09:17:55.450Z,55
2018-07-05T09:18:41.315Z,55.1
2018-07-05T09:19:30.846Z,55.1
2018-07-05T09:20:21.009Z,55.2
2018-07-05T09:21:10.989Z,55.3
2018-07-05T09:22:01.576Z,55.3
2018-07-05T09:22:51.437Z,55.4
2018-07-05T09:23:42.310Z,55.4
2018-07-05T09:24:31.223Z,55.5
2018-07-05T09:25:21.647Z,55.6
2018-07-05T09:26:11.352Z,55.6
2018-07-05T09:27:01.411Z,55.7
2018-07-05T09:27:51.572Z,55.8
2018-07-05T09:28:41.635Z,55.8
2018-07-05T09:29:31.873Z,55.9
2018-07-05T09:30:21.987Z,55.9
2018-07-05T09:31:12.963Z,56.1
2018-07-05T09:32:01.825Z,56.1
2018-07-05T09:32:51.861Z,56.1
2018-07-05T09:33:41.523Z,56.2
2018-07-05T09:34:31.543Z,56.2
2018-07-05T09:35:22.422Z,56.3
2018-07-05T09:36:11.672Z,56.3
2018-07-05T09:37:01.938Z,56.4
2018-07-05T09:37:52.049Z,56.5
2018-07-05T09:38:42.090Z,56.5
2018-07-05T09:39:32.689Z,56.6
2018-07-05T09:40:22.758Z,56.6
2018-07-05T09:41:13.111Z,56.7
2018-07-05T09:42:03.181Z,56.8
2018-07-05T09:42:52.388Z,56.8
2018-07-05T09:43:43.304Z,56.9
2018-07-05T09:44:32.803Z,56.9
2018-07-05T09:45:23.133Z,57
2018-07-05T09:46:12.959Z,57
2018-07-05T09:47:04.601Z,57.1
2018-07-05T09:47:52.873Z,57.1
2018-07-05T09:48:42.405Z,57.2
2018-07-05T09:49:33.190Z,57.3
2018-07-05T09:50:22.564Z,57.3
2018-07-05T09:51:13.604Z,57.3
2018-07-05T09:52:03.675Z,57.4
2018-07-05T09:52:55.093Z,57.4
2018-07-05T09:53:43.239Z,57.5
2018-07-05T09:54:33.547Z,57.6
2018-07-05T09:55:23.681Z,57.6
2018-07-05T09:56:14.235Z,57.7
2018-07-05T09:57:04.086Z,57.7
2018-07-05T09:58:44.178Z,57.8
2018-07-05T09:59:34.245Z,57.9
2018-07-05T10:00:24.589Z,57.9
2018-07-05T10:01:14.417Z,57.9
2018-07-05T10:02:03.400Z,58.1
2018-07-05T10:02:54.550Z,58.1
2018-07-05T10:03:46.440Z,58.2
2018-07-05T10:04:34.384Z,58.3
2018-07-05T10:05:24.490Z,58.3
2018-07-05T10:06:14.266Z,58.4
2018-07-05T10:07:04.869Z,58.4
2018-07-05T10:07:54.421Z,58.5
2018-07-05T10:10:24.825Z,58.6
2018-07-05T10:11:14.933Z,58.8
2018-07-05T10:12:05.276Z,58.8
2018-07-05T10:12:55.489Z,58.8
2018-07-05T10:13:48.089Z,58.9
2018-07-05T10:14:35.486Z,58.9
2018-07-05T10:15:25.270Z,58.9
2018-07-05T10:16:15.305Z,58.9
2018-07-05T10:17:06.009Z,59
2018-07-05T10:17:56.027Z,59.1
2018-07-05T10:18:46.045Z,59.1
2018-07-05T10:19:36.088Z,59.2
2018-07-05T10:20:26.188Z,59.3
2018-07-05T10:21:15.986Z,59.3
2018-07-05T10:22:05.486Z,59.4
2018-07-05T10:22:56.424Z,59.4
2018-07-05T10:23:46.184Z,59.4
2018-07-05T10:24:35.951Z,59.5
2018-07-05T10:25:26.604Z,59.6
2018-07-05T10:26:15.509Z,59.6
2018-07-05T10:27:07.134Z,59.7
2018-07-05T10:27:56.531Z,59.7
2018-07-05T10:28:46.287Z,59.8
2018-07-05T10:29:36.648Z,59.8
2018-07-05T10:30:26.160Z,59.9
2018-07-05T10:31:16.741Z,59.9
2018-07-05T10:32:06.581Z,59.9
2018-07-05T10:32:57.177Z,60.1
2018-07-05T10:33:46.946Z,60.1
2018-07-05T10:34:36.824Z,60.2
2018-07-05T10:35:26.527Z,60.1
2018-07-05T10:36:16.937Z,60.3
2018-07-05T10:37:07.518Z,60.3
2018-07-05T10:37:57.300Z,60.2
2018-07-05T10:38:47.403Z,60.1
2018-07-05T10:39:38.348Z,60.3
2018-07-05T10:40:27.792Z,60.3
2018-07-05T10:41:17.369Z,60.4
2018-07-05T10:42:07.107Z,60.5
2018-07-05T10:42:57.152Z,60.6
2018-07-05T10:43:47.475Z,60.6
2018-07-05T10:44:37.268Z,60.6
2018-07-05T10:45:27.649Z,60.7
2018-07-05T10:46:18.289Z,60.8
2018-07-05T10:47:08.056Z,60.8
2018-07-05T10:47:58.397Z,60.9
2018-07-05T10:48:47.881Z,60.9
2018-07-05T10:49:38.054Z,60.9
2018-07-05T10:50:28.291Z,61
2018-07-05T10:51:18.673Z,61.1
2018-07-05T10:52:08.153Z,61.1
2018-07-05T10:52:57.951Z,61.1
2018-07-05T10:53:48.286Z,61.1
2018-07-05T10:54:38.632Z,61.2
2018-07-05T10:55:28.249Z,61.3
2018-07-05T10:56:18.751Z,61.3
2018-07-05T10:57:08.543Z,61.4
2018-07-05T10:57:58.884Z,61.4
2018-07-05T10:58:49.220Z,61.4
2018-07-05T10:59:39.260Z,61.5
2018-07-05T11:00:28.787Z,61.5
2018-07-05T11:01:18.867Z,61.6
2018-07-05T11:02:08.915Z,61.6
2018-07-05T11:02:59.576Z,61.7
2018-07-05T11:03:49.605Z,61.7
2018-07-05T11:04:39.180Z,61.8
2018-07-05T11:05:29.192Z,61.8
2018-07-05T11:06:19.551Z,61.9
2018-07-05T11:07:09.702Z,61.8
2018-07-05T11:07:59.417Z,61.9
2018-07-05T11:08:49.437Z,61.9
2018-07-05T11:09:39.520Z,61.9
2018-07-05T11:10:30.208Z,62
2018-07-05T11:11:19.393Z,62.1